Detalii statie INDEPENDENTA [00001985]

Toti senzorii

Date Temperatura solului [C]Precipitatii [mm]Voltaj baterie [mV]Leaf Wetness [Min]HC Air temperature [C]HC Relative humidity [%]Punctul de roua [C]
medieminmaxsumaultimatimpmedieminmaxmediemediemin
2017-08-14 20:00:00 0 6854 21.97 21.7 22.2 100 21.9 21.7
2017-08-14 21:00:00 0 6854 22.04 21.96 22.13 100 22 21.9
2017-08-14 22:00:00 0 6844 21.6 21.1 22.02 100 21.5 21.1
2017-08-14 23:00:00 0 6854 20.2 19.5 21.1 100 20.1 19.5
2017-08-15 00:00:00 0 6844 19.28 17.91 20.19 100 19.2 17.9
2017-08-15 01:00:00 0 6854 18.61 17.78 19.22 100 18.5 17.7
2017-08-15 02:00:00 0 6844 18.77 17.83 19.6 100 18.7 17.8
2017-08-15 03:00:00 0 6854 18.15 17.78 18.99 100 18.1 17.7
2017-08-15 04:00:00 0 6834 19.07 18.91 19.22 100 19 18.9
2017-08-15 05:00:00 0 6854 18.48 18.01 18.88 100 18.4 18
2017-08-15 06:00:00 0 6904 18.2 17.79 18.61 100 18.1 17.7
2017-08-15 07:00:00 0 7020 19.38 18.45 20.52 100 19.3 18.4
2017-08-15 08:00:00 0 7030 21.56 20.74 22.22 100 21.5 20.7
2017-08-15 09:00:00 0 7236 22.93 22.34 23.68 75 0
2017-08-15 10:00:00 0 7264 24.2 23.53 24.7 0 0 0
2017-08-15 11:00:00 0 7254 25.86 24.94 26.54 0 0 0
2017-08-15 12:00:00 0 7254 27.77 27.38 28.17 0 0 0
2017-08-15 13:00:00 0 7226 28.27 27.96 28.59 0 0 0
2017-08-15 14:00:00 0 7118 28.64 28.31 28.88 0 0 0
2017-08-15 15:00:00 0 7088 29.16 28.82 29.52 0 0 0
2017-08-15 16:00:00 0 7070 28.88 28.4 29.62 0 0 0
2017-08-15 17:00:00 0 7000 27.83 27.53 28.22 0 0 0
2017-08-15 18:00:00 0 7216 27.06 26.67 27.73 0 0 0
2017-08-15 19:00:00 0 6894 26.13 25.5 26.61 8.33 0
2017-08-15 20:00:00 0 6874 24.66 24.38 25.33 0 0 0
2017-08-15 21:00:00 0 6854 24.1 23.47 24.55 0 0 0
2017-08-15 22:00:00 0 6854 23.18 22.93 23.39 16.66 3.8 0
2017-08-15 23:00:00 0 6864 22.88 22.44 23.13 0 0 0
2017-08-16 00:00:00 0 6864 22.92 22.63 23.11 0 0 0
2017-08-16 01:00:00 0 6854 22.13 21.91 22.51 25 0
2017-08-16 02:00:00 0 6854 21.66 21.39 21.83 0 0 0
2017-08-16 03:00:00 0 6826 22.18 21.81 22.37 33.33 7.4 0
2017-08-16 04:00:00 0 6854 21.79 21.59 22.2 0 0 0
2017-08-16 05:00:00 0 6844 22.16 21.74 22.41 0 0 0
2017-08-16 06:00:00 0 6904 22.12 21.99 22.26 0 0 0
2017-08-16 07:00:00 0 7254 22.63 22.25 23.1 0 0 0
2017-08-16 08:00:00 0 7254 24.04 23.2 24.73 0 0 0
2017-08-16 09:00:00 0 7254 25.67 25.03 26.66 0 0 0
2017-08-16 10:00:00 0 7246 26.41 25.99 26.94 0 0 0
2017-08-16 11:00:00 0 7246 27.03 26.56 27.72 0 0 0
2017-08-16 12:00:00 0 7254 27.14 26.83 27.67 8.33 0
2017-08-16 13:00:00 0 7176 29.33 28.03 30.46 0 0 0
2017-08-16 14:00:00 0 7158 31.34 30.81 32.33 0 0 0
2017-08-16 15:00:00 0 7226 31.65 30.92 32.94 0 0 0
2017-08-16 16:00:00 0 7216 31.36 30.71 31.96 0 0 0
2017-08-16 17:00:00 0 7216 31.49 31.07 32.23 0 0 0
2017-08-16 18:00:00 0 7216 30.61 30.28 30.86 0 0 0
2017-08-16 19:00:00 0 6884 29.23 27.92 30.19 0 0 0